sensor_id;sensor_type;location;lat;lon;timestamp;temperature;humidity
15384;DHT22;7790;53.022;12.968;2023-07-20T00:01:34;22.00;53.00
15384;DHT22;7790;53.022;12.968;2023-07-20T00:05:35;22.00;52.90
15384;DHT22;7790;53.022;12.968;2023-07-20T00:09:35;22.00;52.90
15384;DHT22;7790;53.022;12.968;2023-07-20T00:13:36;22.00;52.90
15384;DHT22;7790;53.022;12.968;2023-07-20T00:17:37;22.00;52.90
15384;DHT22;7790;53.022;12.968;2023-07-20T00:21:40;22.00;52.90
15384;DHT22;7790;53.022;12.968;2023-07-20T00:25:41;22.00;52.90
15384;DHT22;7790;53.022;12.968;2023-07-20T00:29:42;22.00;52.80
15384;DHT22;7790;53.022;12.968;2023-07-20T00:33:43;22.00;52.80
15384;DHT22;7790;53.022;12.968;2023-07-20T00:37:44;22.00;52.80
15384;DHT22;7790;53.022;12.968;2023-07-20T00:41:45;22.00;52.80
15384;DHT22;7790;53.022;12.968;2023-07-20T00:45:46;22.00;52.80
15384;DHT22;7790;53.022;12.968;2023-07-20T00:49:47;22.00;52.80
15384;DHT22;7790;53.022;12.968;2023-07-20T00:53:48;22.00;52.80
15384;DHT22;7790;53.022;12.968;2023-07-20T00:57:53;22.00;52.70
15384;DHT22;7790;53.022;12.968;2023-07-20T01:01:54;22.00;52.90
15384;DHT22;7790;53.022;12.968;2023-07-20T01:10:12;22.00;52.80
15384;DHT22;7790;53.022;12.968;2023-07-20T01:14:17;22.00;52.80
15384;DHT22;7790;53.022;12.968;2023-07-20T01:18:18;22.00;52.80
15384;DHT22;7790;53.022;12.968;2023-07-20T01:22:34;21.90;52.70
15384;DHT22;7790;53.022;12.968;2023-07-20T01:31:34;21.90;52.80
15384;DHT22;7790;53.022;12.968;2023-07-20T01:35:38;21.90;52.80
15384;DHT22;7790;53.022;12.968;2023-07-20T01:39:41;21.90;52.80
15384;DHT22;7790;53.022;12.968;2023-07-20T01:43:42;21.90;52.70
15384;DHT22;7790;53.022;12.968;2023-07-20T01:47:43;21.90;52.70
15384;DHT22;7790;53.022;12.968;2023-07-20T01:51:44;21.90;52.70
15384;DHT22;7790;53.022;12.968;2023-07-20T01:55:45;21.90;52.60
15384;DHT22;7790;53.022;12.968;2023-07-20T01:59:48;21.90;52.70
15384;DHT22;7790;53.022;12.968;2023-07-20T02:03:48;21.90;52.70
15384;DHT22;7790;53.022;12.968;2023-07-20T02:07:49;21.90;52.60
15384;DHT22;7790;53.022;12.968;2023-07-20T02:11:54;21.90;52.70
15384;DHT22;7790;53.022;12.968;2023-07-20T02:15:55;21.90;52.60
15384;DHT22;7790;53.022;12.968;2023-07-20T02:19:56;21.90;52.70
15384;DHT22;7790;53.022;12.968;2023-07-20T02:23:58;21.90;52.70
15384;DHT22;7790;53.022;12.968;2023-07-20T02:27:58;21.90;52.70
15384;DHT22;7790;53.022;12.968;2023-07-20T02:32:00;21.90;52.70
15384;DHT22;7790;53.022;12.968;2023-07-20T02:36:01;21.90;52.70
15384;DHT22;7790;53.022;12.968;2023-07-20T02:40:02;21.90;52.70
15384;DHT22;7790;53.022;12.968;2023-07-20T02:44:04;21.90;52.70
15384;DHT22;7790;53.022;12.968;2023-07-20T02:48:05;21.90;52.70
15384;DHT22;7790;53.022;12.968;2023-07-20T02:52:08;21.90;52.70
15384;DHT22;7790;53.022;12.968;2023-07-20T02:56:09;21.90;52.70
15384;DHT22;7790;53.022;12.968;2023-07-20T03:00:10;21.90;52.70
15384;DHT22;7790;53.022;12.968;2023-07-20T03:04:12;21.90;52.70
15384;DHT22;7790;53.022;12.968;2023-07-20T03:08:13;21.90;52.60
15384;DHT22;7790;53.022;12.968;2023-07-20T03:12:13;21.90;52.70
15384;DHT22;7790;53.022;12.968;2023-07-20T03:16:19;21.90;52.70
15384;DHT22;7790;53.022;12.968;2023-07-20T03:20:20;21.90;52.70
15384;DHT22;7790;53.022;12.968;2023-07-20T03:24:21;21.90;52.60
15384;DHT22;7790;53.022;12.968;2023-07-20T03:28:25;21.90;52.70
15384;DHT22;7790;53.022;12.968;2023-07-20T03:32:26;21.90;52.70
15384;DHT22;7790;53.022;12.968;2023-07-20T03:36:27;21.90;52.70
15384;DHT22;7790;53.022;12.968;2023-07-20T03:40:28;21.80;52.90
15384;DHT22;7790;53.022;12.968;2023-07-20T03:44:29;21.60;53.50
15384;DHT22;7790;53.022;12.968;2023-07-20T03:48:30;21.40;54.30
15384;DHT22;7790;53.022;12.968;2023-07-20T03:52:31;21.30;54.70
15384;DHT22;7790;53.022;12.968;2023-07-20T03:56:32;21.20;54.70
15384;DHT22;7790;53.022;12.968;2023-07-20T04:00:35;21.10;54.90
15384;DHT22;7790;53.022;12.968;2023-07-20T04:04:36;21.10;54.90
15384;DHT22;7790;53.022;12.968;2023-07-20T04:08:37;21.10;55.00
15384;DHT22;7790;53.022;12.968;2023-07-20T04:12:38;21.10;54.90
15384;DHT22;7790;53.022;12.968;2023-07-20T04:16:39;21.00;55.10
15384;DHT22;7790;53.022;12.968;2023-07-20T04:20:40;21.00;55.20
15384;DHT22;7790;53.022;12.968;2023-07-20T04:24:42;21.10;55.20
15384;DHT22;7790;53.022;12.968;2023-07-20T04:28:43;21.10;55.40
15384;DHT22;7790;53.022;12.968;2023-07-20T04:32:48;21.10;55.60
15384;DHT22;7790;53.022;12.968;2023-07-20T04:36:49;21.10;55.70
15384;DHT22;7790;53.022;12.968;2023-07-20T04:40:51;21.10;55.70
15384;DHT22;7790;53.022;12.968;2023-07-20T04:44:52;21.00;55.80
15384;DHT22;7790;53.022;12.968;2023-07-20T04:48:53;21.10;56.00
15384;DHT22;7790;53.022;12.968;2023-07-20T04:52:55;21.10;56.10
15384;DHT22;7790;53.022;12.968;2023-07-20T04:56:57;21.00;56.40
15384;DHT22;7790;53.022;12.968;2023-07-20T05:00:58;21.00;56.50
15384;DHT22;7790;53.022;12.968;2023-07-20T05:04:59;21.00;56.60
15384;DHT22;7790;53.022;12.968;2023-07-20T05:09:00;20.90;56.70
15384;DHT22;7790;53.022;12.968;2023-07-20T05:13:02;20.80;56.70
15384;DHT22;7790;53.022;12.968;2023-07-20T05:17:03;20.90;56.70
15384;DHT22;7790;53.022;12.968;2023-07-20T05:21:05;20.90;56.70
15384;DHT22;7790;53.022;12.968;2023-07-20T05:25:10;20.80;56.60
15384;DHT22;7790;53.022;12.968;2023-07-20T05:29:11;20.80;56.70
15384;DHT22;7790;53.022;12.968;2023-07-20T05:33:12;20.70;56.60
15384;DHT22;7790;53.022;12.968;2023-07-20T05:37:13;20.70;56.90
15384;DHT22;7790;53.022;12.968;2023-07-20T05:41:14;20.70;57.10
15384;DHT22;7790;53.022;12.968;2023-07-20T05:45:15;20.60;57.00
15384;DHT22;7790;53.022;12.968;2023-07-20T05:49:16;20.70;57.10
15384;DHT22;7790;53.022;12.968;2023-07-20T05:53:17;20.70;56.70
15384;DHT22;7790;53.022;12.968;2023-07-20T05:57:18;20.70;56.50
15384;DHT22;7790;53.022;12.968;2023-07-20T06:01:19;20.70;56.30
15384;DHT22;7790;53.022;12.968;2023-07-20T06:05:19;20.70;56.30
15384;DHT22;7790;53.022;12.968;2023-07-20T06:09:21;20.70;56.40
15384;DHT22;7790;53.022;12.968;2023-07-20T06:13:23;20.70;56.30
15384;DHT22;7790;53.022;12.968;2023-07-20T06:17:24;20.70;56.30
15384;DHT22;7790;53.022;12.968;2023-07-20T06:21:25;20.70;56.10
15384;DHT22;7790;53.022;12.968;2023-07-20T06:25:26;20.70;56.60
15384;DHT22;7790;53.022;12.968;2023-07-20T06:29:27;20.70;55.90
15384;DHT22;7790;53.022;12.968;2023-07-20T06:33:28;20.80;55.90
15384;DHT22;7790;53.022;12.968;2023-07-20T06:37:29;20.80;55.90
15384;DHT22;7790;53.022;12.968;2023-07-20T06:41:30;20.80;55.80
15384;DHT22;7790;53.022;12.968;2023-07-20T06:45:31;20.80;55.50
15384;DHT22;7790;53.022;12.968;2023-07-20T06:49:32;20.80;55.60
15384;DHT22;7790;53.022;12.968;2023-07-20T06:53:33;20.70;55.40
15384;DHT22;7790;53.022;12.968;2023-07-20T06:57:33;20.70;55.40
15384;DHT22;7790;53.022;12.968;2023-07-20T07:01:34;20.70;55.50
15384;DHT22;7790;53.022;12.968;2023-07-20T07:05:36;20.70;55.50
15384;DHT22;7790;53.022;12.968;2023-07-20T07:09:38;20.70;55.50
15384;DHT22;7790;53.022;12.968;2023-07-20T07:13:39;20.80;55.40
15384;DHT22;7790;53.022;12.968;2023-07-20T07:17:39;20.80;55.30
15384;DHT22;7790;53.022;12.968;2023-07-20T07:21:40;20.80;55.30
15384;DHT22;7790;53.022;12.968;2023-07-20T07:25:42;20.80;55.10
15384;DHT22;7790;53.022;12.968;2023-07-20T07:29:43;20.80;55.10
15384;DHT22;7790;53.022;12.968;2023-07-20T07:33:47;20.90;55.50
15384;DHT22;7790;53.022;12.968;2023-07-20T07:37:48;21.00;55.10
15384;DHT22;7790;53.022;12.968;2023-07-20T07:41:49;21.10;55.00
15384;DHT22;7790;53.022;12.968;2023-07-20T07:45:53;21.10;54.40
15384;DHT22;7790;53.022;12.968;2023-07-20T07:49:54;21.00;54.30
15384;DHT22;7790;53.022;12.968;2023-07-20T07:53:55;20.80;54.60
15384;DHT22;7790;53.022;12.968;2023-07-20T07:57:55;20.60;55.00
15384;DHT22;7790;53.022;12.968;2023-07-20T08:01:56;20.60;55.20
15384;DHT22;7790;53.022;12.968;2023-07-20T08:05:59;20.50;55.00
15384;DHT22;7790;53.022;12.968;2023-07-20T08:10:00;20.60;55.20
15384;DHT22;7790;53.022;12.968;2023-07-20T08:14:01;20.90;55.40
15384;DHT22;7790;53.022;12.968;2023-07-20T08:18:02;21.20;54.90
15384;DHT22;7790;53.022;12.968;2023-07-20T08:22:03;21.30;55.00
15384;DHT22;7790;53.022;12.968;2023-07-20T08:26:04;21.90;54.70
15384;DHT22;7790;53.022;12.968;2023-07-20T08:30:05;22.20;54.10
15384;DHT22;7790;53.022;12.968;2023-07-20T08:34:07;22.00;54.60
15384;DHT22;7790;53.022;12.968;2023-07-20T08:38:08;20.70;54.20
15384;DHT22;7790;53.022;12.968;2023-07-20T08:42:09;20.00;54.70
15384;DHT22;7790;53.022;12.968;2023-07-20T08:46:11;19.80;56.20
15384;DHT22;7790;53.022;12.968;2023-07-20T08:50:13;19.90;56.70
15384;DHT22;7790;53.022;12.968;2023-07-20T08:54:16;20.10;56.20
15384;DHT22;7790;53.022;12.968;2023-07-20T08:58:17;19.80;54.90
15384;DHT22;7790;53.022;12.968;2023-07-20T09:02:19;19.80;54.80
15384;DHT22;7790;53.022;12.968;2023-07-20T09:06:21;19.80;54.80
15384;DHT22;7790;53.022;12.968;2023-07-20T09:10:23;19.80;54.70
15384;DHT22;7790;53.022;12.968;2023-07-20T09:14:24;19.80;54.60
15384;DHT22;7790;53.022;12.968;2023-07-20T09:18:30;20.10;54.40
15384;DHT22;7790;53.022;12.968;2023-07-20T09:22:31;20.00;53.90
15384;DHT22;7790;53.022;12.968;2023-07-20T09:26:40;20.00;53.80
15384;DHT22;7790;53.022;12.968;2023-07-20T09:30:42;20.10;54.10
15384;DHT22;7790;53.022;12.968;2023-07-20T09:34:43;20.10;53.20
15384;DHT22;7790;53.022;12.968;2023-07-20T09:38:44;20.10;51.20
15384;DHT22;7790;53.022;12.968;2023-07-20T09:42:47;20.00;49.90
15384;DHT22;7790;53.022;12.968;2023-07-20T09:46:50;20.00;50.90
15384;DHT22;7790;53.022;12.968;2023-07-20T09:50:51;20.30;51.10
15384;DHT22;7790;53.022;12.968;2023-07-20T09:54:54;20.40;50.00
15384;DHT22;7790;53.022;12.968;2023-07-20T09:58:56;20.40;49.80
15384;DHT22;7790;53.022;12.968;2023-07-20T10:02:58;20.60;49.30
15384;DHT22;7790;53.022;12.968;2023-07-20T10:07:02;20.60;49.00
15384;DHT22;7790;53.022;12.968;2023-07-20T10:11:07;21.00;48.50
15384;DHT22;7790;53.022;12.968;2023-07-20T10:15:27;21.30;48.50
15384;DHT22;7790;53.022;12.968;2023-07-20T10:19:44;21.40;47.60
15384;DHT22;7790;53.022;12.968;2023-07-20T10:23:47;21.50;47.50
15384;DHT22;7790;53.022;12.968;2023-07-20T10:27:49;21.50;46.50
15384;DHT22;7790;53.022;12.968;2023-07-20T10:31:50;21.60;46.20
15384;DHT22;7790;53.022;12.968;2023-07-20T10:39:55;21.60;46.00
15384;DHT22;7790;53.022;12.968;2023-07-20T10:44:02;21.70;46.00
15384;DHT22;7790;53.022;12.968;2023-07-20T10:48:04;21.70;45.70
15384;DHT22;7790;53.022;12.968;2023-07-20T10:52:10;21.80;45.60
15384;DHT22;7790;53.022;12.968;2023-07-20T10:56:13;21.90;45.40
15384;DHT22;7790;53.022;12.968;2023-07-20T11:00:15;22.00;45.00
15384;DHT22;7790;53.022;12.968;2023-07-20T11:04:19;22.10;45.10
15384;DHT22;7790;53.022;12.968;2023-07-20T11:08:40;22.20;45.40
15384;DHT22;7790;53.022;12.968;2023-07-20T11:17:33;22.30;45.30
15384;DHT22;7790;53.022;12.968;2023-07-20T11:21:38;22.40;45.60
15384;DHT22;7790;53.022;12.968;2023-07-20T11:25:41;22.40;45.80
15384;DHT22;7790;53.022;12.968;2023-07-20T11:29:45;22.40;45.30
15384;DHT22;7790;53.022;12.968;2023-07-20T11:33:46;22.50;44.90
15384;DHT22;7790;53.022;12.968;2023-07-20T11:37:47;22.50;44.70
15384;DHT22;7790;53.022;12.968;2023-07-20T11:45:49;22.50;43.90
15384;DHT22;7790;53.022;12.968;2023-07-20T11:49:50;22.50;43.90
15384;DHT22;7790;53.022;12.968;2023-07-20T11:53:55;22.50;43.90
15384;DHT22;7790;53.022;12.968;2023-07-20T11:58:07;22.40;44.70
15384;DHT22;7790;53.022;12.968;2023-07-20T12:02:08;22.40;43.60
15384;DHT22;7790;53.022;12.968;2023-07-20T12:06:10;22.40;44.40
15384;DHT22;7790;53.022;12.968;2023-07-20T12:10:11;22.40;44.60
15384;DHT22;7790;53.022;12.968;2023-07-20T12:14:13;22.40;44.50
15384;DHT22;7790;53.022;12.968;2023-07-20T12:18:13;22.40;43.60
15384;DHT22;7790;53.022;12.968;2023-07-20T12:22:14;22.40;43.90
15384;DHT22;7790;53.022;12.968;2023-07-20T12:26:15;22.40;44.20
15384;DHT22;7790;53.022;12.968;2023-07-20T12:30:16;22.40;43.80
15384;DHT22;7790;53.022;12.968;2023-07-20T12:34:17;22.40;43.30
15384;DHT22;7790;53.022;12.968;2023-07-20T12:38:18;22.40;44.40
15384;DHT22;7790;53.022;12.968;2023-07-20T12:42:19;22.30;44.30
15384;DHT22;7790;53.022;12.968;2023-07-20T12:46:20;22.30;43.80
15384;DHT22;7790;53.022;12.968;2023-07-20T12:50:20;22.30;44.10
15384;DHT22;7790;53.022;12.968;2023-07-20T12:54:21;22.30;43.70
15384;DHT22;7790;53.022;12.968;2023-07-20T12:58:22;22.40;43.90
15384;DHT22;7790;53.022;12.968;2023-07-20T13:02:24;22.40;43.70
15384;DHT22;7790;53.022;12.968;2023-07-20T13:06:25;22.40;43.50
15384;DHT22;7790;53.022;12.968;2023-07-20T13:10:26;22.40;43.10
15384;DHT22;7790;53.022;12.968;2023-07-20T13:14:26;22.40;43.40
15384;DHT22;7790;53.022;12.968;2023-07-20T13:18:29;22.40;42.50
15384;DHT22;7790;53.022;12.968;2023-07-20T13:22:30;22.40;42.10
15384;DHT22;7790;53.022;12.968;2023-07-20T13:26:31;22.40;42.50
15384;DHT22;7790;53.022;12.968;2023-07-20T13:30:32;22.40;42.50
15384;DHT22;7790;53.022;12.968;2023-07-20T13:34:34;22.40;42.80
15384;DHT22;7790;53.022;12.968;2023-07-20T13:38:34;22.40;43.30
15384;DHT22;7790;53.022;12.968;2023-07-20T13:42:35;22.40;42.80
15384;DHT22;7790;53.022;12.968;2023-07-20T13:46:36;22.40;41.80
15384;DHT22;7790;53.022;12.968;2023-07-20T13:50:37;22.40;42.00
15384;DHT22;7790;53.022;12.968;2023-07-20T13:54:38;22.40;41.00
15384;DHT22;7790;53.022;12.968;2023-07-20T13:58:39;22.40;40.60
15384;DHT22;7790;53.022;12.968;2023-07-20T14:02:41;22.40;40.90
15384;DHT22;7790;53.022;12.968;2023-07-20T14:06:42;22.40;40.50
15384;DHT22;7790;53.022;12.968;2023-07-20T14:10:43;22.30;40.70
15384;DHT22;7790;53.022;12.968;2023-07-20T14:14:44;22.30;40.50
15384;DHT22;7790;53.022;12.968;2023-07-20T14:18:46;22.30;41.20
15384;DHT22;7790;53.022;12.968;2023-07-20T14:22:49;22.20;40.90
15384;DHT22;7790;53.022;12.968;2023-07-20T14:26:51;22.20;41.10
15384;DHT22;7790;53.022;12.968;2023-07-20T14:30:52;22.20;41.60
15384;DHT22;7790;53.022;12.968;2023-07-20T14:34:52;22.20;41.70
15384;DHT22;7790;53.022;12.968;2023-07-20T14:38:53;22.10;41.90
15384;DHT22;7790;53.022;12.968;2023-07-20T14:42:55;22.10;42.70
15384;DHT22;7790;53.022;12.968;2023-07-20T14:46:56;22.10;42.60
15384;DHT22;7790;53.022;12.968;2023-07-20T14:50:57;22.10;42.70
15384;DHT22;7790;53.022;12.968;2023-07-20T14:54:58;22.10;42.80
15384;DHT22;7790;53.022;12.968;2023-07-20T14:58:59;22.10;42.80
15384;DHT22;7790;53.022;12.968;2023-07-20T15:03:01;22.20;43.20
15384;DHT22;7790;53.022;12.968;2023-07-20T15:07:02;22.20;42.60
15384;DHT22;7790;53.022;12.968;2023-07-20T15:11:03;22.20;42.20
15384;DHT22;7790;53.022;12.968;2023-07-20T15:19:08;22.30;42.20
15384;DHT22;7790;53.022;12.968;2023-07-20T15:23:09;22.30;41.90
15384;DHT22;7790;53.022;12.968;2023-07-20T15:27:11;22.30;42.30
15384;DHT22;7790;53.022;12.968;2023-07-20T15:31:11;22.30;42.50
15384;DHT22;7790;53.022;12.968;2023-07-20T15:35:12;22.30;42.90
15384;DHT22;7790;53.022;12.968;2023-07-20T15:39:13;22.30;42.50
15384;DHT22;7790;53.022;12.968;2023-07-20T15:43:14;22.10;42.50
15384;DHT22;7790;53.022;12.968;2023-07-20T15:47:15;22.00;42.90
15384;DHT22;7790;53.022;12.968;2023-07-20T15:51:16;21.80;42.40
15384;DHT22;7790;53.022;12.968;2023-07-20T15:55:17;21.60;42.90
15384;DHT22;7790;53.022;12.968;2023-07-20T15:59:18;21.70;42.60
15384;DHT22;7790;53.022;12.968;2023-07-20T16:03:19;21.60;42.80
15384;DHT22;7790;53.022;12.968;2023-07-20T16:07:20;21.70;42.70
15384;DHT22;7790;53.022;12.968;2023-07-20T16:11:21;21.70;42.90
15384;DHT22;7790;53.022;12.968;2023-07-20T16:15:22;21.70;43.40
15384;DHT22;7790;53.022;12.968;2023-07-20T16:19:25;21.70;44.40
15384;DHT22;7790;53.022;12.968;2023-07-20T16:23:26;21.80;45.40
15384;DHT22;7790;53.022;12.968;2023-07-20T16:27:26;21.90;45.70
15384;DHT22;7790;53.022;12.968;2023-07-20T16:31:27;22.00;45.60
15384;DHT22;7790;53.022;12.968;2023-07-20T16:35:28;22.20;45.70
15384;DHT22;7790;53.022;12.968;2023-07-20T16:39:29;22.30;45.90
15384;DHT22;7790;53.022;12.968;2023-07-20T16:43:31;22.40;45.90
15384;DHT22;7790;53.022;12.968;2023-07-20T16:47:32;22.40;45.90
15384;DHT22;7790;53.022;12.968;2023-07-20T16:51:34;22.40;45.90
15384;DHT22;7790;53.022;12.968;2023-07-20T16:55:35;22.50;46.00
15384;DHT22;7790;53.022;12.968;2023-07-20T16:59:36;22.50;46.00
15384;DHT22;7790;53.022;12.968;2023-07-20T17:03:37;22.50;46.10
15384;DHT22;7790;53.022;12.968;2023-07-20T17:07:41;22.50;46.20
15384;DHT22;7790;53.022;12.968;2023-07-20T17:11:42;22.50;46.30
15384;DHT22;7790;53.022;12.968;2023-07-20T17:15:47;22.60;46.50
15384;DHT22;7790;53.022;12.968;2023-07-20T17:19:49;22.60;46.50
15384;DHT22;7790;53.022;12.968;2023-07-20T17:23:49;22.60;46.50
15384;DHT22;7790;53.022;12.968;2023-07-20T17:27:50;22.60;46.60
15384;DHT22;7790;53.022;12.968;2023-07-20T17:31:51;22.60;46.30
15384;DHT22;7790;53.022;12.968;2023-07-20T17:35:52;22.50;46.20
15384;DHT22;7790;53.022;12.968;2023-07-20T17:39:54;22.60;46.40
15384;DHT22;7790;53.022;12.968;2023-07-20T17:43:56;22.60;46.50
15384;DHT22;7790;53.022;12.968;2023-07-20T17:47:57;22.70;46.60
15384;DHT22;7790;53.022;12.968;2023-07-20T17:51:59;22.60;46.90
15384;DHT22;7790;53.022;12.968;2023-07-20T17:56:00;22.70;46.80
15384;DHT22;7790;53.022;12.968;2023-07-20T18:00:02;22.70;47.00
15384;DHT22;7790;53.022;12.968;2023-07-20T18:04:05;22.60;47.10
15384;DHT22;7790;53.022;12.968;2023-07-20T18:08:06;22.70;47.20
15384;DHT22;7790;53.022;12.968;2023-07-20T18:12:08;22.70;47.40
15384;DHT22;7790;53.022;12.968;2023-07-20T18:16:08;22.60;47.20
15384;DHT22;7790;53.022;12.968;2023-07-20T18:20:10;22.60;47.30
15384;DHT22;7790;53.022;12.968;2023-07-20T18:24:11;22.60;47.50
15384;DHT22;7790;53.022;12.968;2023-07-20T18:28:12;22.50;47.50
15384;DHT22;7790;53.022;12.968;2023-07-20T18:32:12;22.50;47.50
15384;DHT22;7790;53.022;12.968;2023-07-20T18:36:13;22.50;47.50
15384;DHT22;7790;53.022;12.968;2023-07-20T18:40:14;22.50;47.70
15384;DHT22;7790;53.022;12.968;2023-07-20T18:44:15;22.50;47.60
15384;DHT22;7790;53.022;12.968;2023-07-20T18:48:16;22.40;47.60
15384;DHT22;7790;53.022;12.968;2023-07-20T18:52:17;22.40;47.60
15384;DHT22;7790;53.022;12.968;2023-07-20T18:56:19;22.40;47.70
15384;DHT22;7790;53.022;12.968;2023-07-20T19:00:20;22.40;47.60
15384;DHT22;7790;53.022;12.968;2023-07-20T19:04:22;22.30;47.60
15384;DHT22;7790;53.022;12.968;2023-07-20T19:08:24;22.30;47.60
15384;DHT22;7790;53.022;12.968;2023-07-20T19:12:26;22.30;47.70
15384;DHT22;7790;53.022;12.968;2023-07-20T19:16:27;22.30;47.70
15384;DHT22;7790;53.022;12.968;2023-07-20T19:20:28;22.30;47.80
15384;DHT22;7790;53.022;12.968;2023-07-20T19:24:28;22.30;47.80
15384;DHT22;7790;53.022;12.968;2023-07-20T19:28:29;22.30;47.90
15384;DHT22;7790;53.022;12.968;2023-07-20T19:32:31;22.30;47.90
15384;DHT22;7790;53.022;12.968;2023-07-20T19:36:32;22.30;47.90
15384;DHT22;7790;53.022;12.968;2023-07-20T19:40:33;22.30;48.00
15384;DHT22;7790;53.022;12.968;2023-07-20T19:44:34;22.30;48.10
15384;DHT22;7790;53.022;12.968;2023-07-20T19:48:35;22.20;48.10
15384;DHT22;7790;53.022;12.968;2023-07-20T19:52:38;22.20;48.10
15384;DHT22;7790;53.022;12.968;2023-07-20T19:56:43;22.20;48.20
15384;DHT22;7790;53.022;12.968;2023-07-20T20:00:44;22.20;48.30
15384;DHT22;7790;53.022;12.968;2023-07-20T20:04:45;22.20;48.30
15384;DHT22;7790;53.022;12.968;2023-07-20T20:08:46;22.20;48.30
15384;DHT22;7790;53.022;12.968;2023-07-20T20:12:47;22.20;48.30
15384;DHT22;7790;53.022;12.968;2023-07-20T20:16:48;22.20;48.40
15384;DHT22;7790;53.022;12.968;2023-07-20T20:20:49;22.20;48.40
15384;DHT22;7790;53.022;12.968;2023-07-20T20:24:50;22.20;48.50
15384;DHT22;7790;53.022;12.968;2023-07-20T20:28:52;22.20;48.50
15384;DHT22;7790;53.022;12.968;2023-07-20T20:32:54;22.20;48.60
15384;DHT22;7790;53.022;12.968;2023-07-20T20:36:55;22.20;48.50
15384;DHT22;7790;53.022;12.968;2023-07-20T20:40:57;22.20;48.70
15384;DHT22;7790;53.022;12.968;2023-07-20T20:44:58;22.20;48.70
15384;DHT22;7790;53.022;12.968;2023-07-20T20:48:59;22.20;48.70
15384;DHT22;7790;53.022;12.968;2023-07-20T20:53:01;22.20;48.80
15384;DHT22;7790;53.022;12.968;2023-07-20T20:57:02;22.20;48.90
15384;DHT22;7790;53.022;12.968;2023-07-20T21:01:03;22.20;48.90
15384;DHT22;7790;53.022;12.968;2023-07-20T21:05:04;22.20;48.90
15384;DHT22;7790;53.022;12.968;2023-07-20T21:09:07;22.10;48.90
15384;DHT22;7790;53.022;12.968;2023-07-20T21:13:08;22.20;48.80
15384;DHT22;7790;53.022;12.968;2023-07-20T21:17:08;22.20;48.90
15384;DHT22;7790;53.022;12.968;2023-07-20T21:21:10;22.20;48.90
15384;DHT22;7790;53.022;12.968;2023-07-20T21:25:11;22.10;48.80
15384;DHT22;7790;53.022;12.968;2023-07-20T21:29:12;22.10;48.90
15384;DHT22;7790;53.022;12.968;2023-07-20T21:33:13;22.20;49.00
15384;DHT22;7790;53.022;12.968;2023-07-20T21:37:14;22.10;49.00
15384;DHT22;7790;53.022;12.968;2023-07-20T21:41:15;22.10;49.00
15384;DHT22;7790;53.022;12.968;2023-07-20T21:45:16;22.20;49.10
15384;DHT22;7790;53.022;12.968;2023-07-20T21:49:17;22.10;49.10
15384;DHT22;7790;53.022;12.968;2023-07-20T21:53:18;22.10;49.20
15384;DHT22;7790;53.022;12.968;2023-07-20T21:57:19;22.10;49.20
15384;DHT22;7790;53.022;12.968;2023-07-20T22:01:20;22.10;49.20
15384;DHT22;7790;53.022;12.968;2023-07-20T22:05:21;22.10;49.30
15384;DHT22;7790;53.022;12.968;2023-07-20T22:09:22;22.10;49.40
15384;DHT22;7790;53.022;12.968;2023-07-20T22:13:23;22.10;49.30
15384;DHT22;7790;53.022;12.968;2023-07-20T22:17:23;22.10;49.40
15384;DHT22;7790;53.022;12.968;2023-07-20T22:21:24;22.10;49.40
15384;DHT22;7790;53.022;12.968;2023-07-20T22:25:25;22.10;49.40
15384;DHT22;7790;53.022;12.968;2023-07-20T22:29:26;22.10;49.40
15384;DHT22;7790;53.022;12.968;2023-07-20T22:33:31;22.10;49.50
15384;DHT22;7790;53.022;12.968;2023-07-20T22:37:32;22.10;49.50
15384;DHT22;7790;53.022;12.968;2023-07-20T22:41:32;22.10;49.50
15384;DHT22;7790;53.022;12.968;2023-07-20T22:45:33;22.10;49.50
15384;DHT22;7790;53.022;12.968;2023-07-20T22:49:34;22.10;49.60
15384;DHT22;7790;53.022;12.968;2023-07-20T22:53:36;22.00;49.60
15384;DHT22;7790;53.022;12.968;2023-07-20T22:57:37;22.00;49.60
15384;DHT22;7790;53.022;12.968;2023-07-20T23:01:37;22.00;49.60
15384;DHT22;7790;53.022;12.968;2023-07-20T23:05:43;22.00;49.70
15384;DHT22;7790;53.022;12.968;2023-07-20T23:09:44;22.00;49.80
15384;DHT22;7790;53.022;12.968;2023-07-20T23:13:47;22.00;49.80
15384;DHT22;7790;53.022;12.968;2023-07-20T23:17:48;22.00;49.90
15384;DHT22;7790;53.022;12.968;2023-07-20T23:21:49;22.00;49.90
15384;DHT22;7790;53.022;12.968;2023-07-20T23:25:54;21.90;49.80
15384;DHT22;7790;53.022;12.968;2023-07-20T23:29:55;22.00;50.00
15384;DHT22;7790;53.022;12.968;2023-07-20T23:33:56;22.00;49.90
15384;DHT22;7790;53.022;12.968;2023-07-20T23:37:57;22.00;49.90
15384;DHT22;7790;53.022;12.968;2023-07-20T23:42:01;22.00;49.90
15384;DHT22;7790;53.022;12.968;2023-07-20T23:46:04;22.00;50.00
15384;DHT22;7790;53.022;12.968;2023-07-20T23:50:06;21.90;49.90
15384;DHT22;7790;53.022;12.968;2023-07-20T23:54:09;21.90;49.90
15384;DHT22;7790;53.022;12.968;2023-07-20T23:58:11;21.90;49.90
